This is the latest recevied weather packets stored in our database for station/object EA4URC-10. If no packets are shown the sender has not sent any weather packets the latest 10 day(s).
| Time | Temp. | Humidity | Pressure | Rain* | Wind** | Luminosity | Snow |
|---|---|---|---|---|---|---|---|
| 1777737803 | 15.56° C | 79% | 1031.9 hPa | - | - | - | - |
| 1777736003 | 16.11° C | 76% | 1032.3 hPa | - | - | - | - |
| 1777734203 | 16.11° C | 78% | 1032.4 hPa | - | - | - | - |
| 1777732411 | 15.56° C | 74% | 1032.9 hPa | - | - | - | - |
| 1777730611 | 15.56° C | 77% | 1033.3 hPa | - | - | - | - |
| 1777728807 | 15.56° C | 75% | 1033.8 hPa | - | - | - | - |
| 1777727006 | 14.44° C | 84% | 1034.2 hPa | - | - | - | - |
| 1777725205 | 15° C | 83% | 1034.5 hPa | - | - | - | - |
| 1777723405 | 13.33° C | 92% | 1034.7 hPa | - | - | - | - |
| 1777721604 | 12.78° C | 97% | 1034.6 hPa | - | - | - | - |
| 1777719804 | 13.33° C | 98% | 1034.6 hPa | - | - | - | - |
| 1777718003 | 11.67° C | 100% | 1035 hPa | - | - | - | - |
| 1777716207 | 11.67° C | 100% | 1035 hPa | - | - | - | - |
| 1777714402 | 11.67° C | 100% | 1034.8 hPa | - | - | - | - |
| 1777712602 | 11.67° C | 100% | 1035.1 hPa | - | - | - | - |
| 1777710807 | 11.67° C | 100% | 1034.9 hPa | - | - | - | - |
| 1777709006 | 12.22° C | 100% | 1034.8 hPa | - | - | - | - |
| 1777707206 | 10.56° C | 100% | 1035.2 hPa | - | - | - | - |
| 1777705405 | 9.44° C | 100% | 1035 hPa | - | - | - | - |
| 1777703605 | 9.44° C | 100% | 1035.2 hPa | - | - | - | - |
| 1777701804 | 8.89° C | 100% | 1034.9 hPa | - | - | - | - |
| 1777700004 | 8.89° C | 100% | 1034.9 hPa | - | - | - | - |
| 1777698203 | 8.89° C | 100% | 1035 hPa | - | - | - | - |
| 1777696403 | 8.89° C | 100% | 1035.4 hPa | - | - | - | - |
| 1777694602 | 8.89° C | 100% | 1035.4 hPa | - | - | - | - |
* Rain since midnight (hover to see other rain measurements)
** Current wind speed in m/s (hover to see current wind gust speed)